sensor_id;sensor_type;location;lat;lon;timestamp;P1;durP1;ratioP1;P2;durP2;ratioP2
34828;SDS011;21042;47.620;12.188;2022-12-18T00:01:05;19.63;;;6.22;;
34828;SDS011;21042;47.620;12.188;2022-12-18T00:03:41;18.15;;;6.07;;
34828;SDS011;21042;47.620;12.188;2022-12-18T00:06:08;18.92;;;6.47;;
34828;SDS011;21042;47.620;12.188;2022-12-18T00:08:35;16.45;;;6.45;;
34828;SDS011;21042;47.620;12.188;2022-12-18T00:11:06;16.55;;;5.43;;
34828;SDS011;21042;47.620;12.188;2022-12-18T00:13:34;15.43;;;5.03;;
34828;SDS011;21042;47.620;12.188;2022-12-18T00:16:12;12.70;;;5.35;;
34828;SDS011;21042;47.620;12.188;2022-12-18T00:20:11;20.80;;;5.75;;
34828;SDS011;21042;47.620;12.188;2022-12-18T00:22:58;14.63;;;5.45;;
34828;SDS011;21042;47.620;12.188;2022-12-18T00:25:25;11.90;;;5.13;;
34828;SDS011;21042;47.620;12.188;2022-12-18T00:27:51;19.52;;;6.15;;
34828;SDS011;21042;47.620;12.188;2022-12-18T00:30:18;18.75;;;5.78;;
34828;SDS011;21042;47.620;12.188;2022-12-18T00:32:45;19.40;;;6.60;;
34828;SDS011;21042;47.620;12.188;2022-12-18T00:35:12;21.50;;;7.30;;
34828;SDS011;21042;47.620;12.188;2022-12-18T00:37:39;20.67;;;6.82;;
34828;SDS011;21042;47.620;12.188;2022-12-18T00:40:06;15.80;;;6.38;;
34828;SDS011;21042;47.620;12.188;2022-12-18T00:42:33;19.15;;;6.30;;
34828;SDS011;21042;47.620;12.188;2022-12-18T00:45:18;20.92;;;6.65;;
34828;SDS011;21042;47.620;12.188;2022-12-18T00:47:45;22.10;;;7.30;;
34828;SDS011;21042;47.620;12.188;2022-12-18T00:50:12;23.63;;;7.43;;
34828;SDS011;21042;47.620;12.188;2022-12-18T00:52:40;20.40;;;8.00;;
34828;SDS011;21042;47.620;12.188;2022-12-18T00:55:07;21.63;;;6.95;;
34828;SDS011;21042;47.620;12.188;2022-12-18T01:00:01;28.45;;;8.38;;
34828;SDS011;21042;47.620;12.188;2022-12-18T01:02:28;36.72;;;10.52;;
34828;SDS011;21042;47.620;12.188;2022-12-18T01:04:55;28.35;;;9.43;;
34828;SDS011;21042;47.620;12.188;2022-12-18T01:07:21;26.77;;;9.48;;
34828;SDS011;21042;47.620;12.188;2022-12-18T01:09:48;26.00;;;9.45;;
34828;SDS011;21042;47.620;12.188;2022-12-18T01:12:15;30.48;;;9.90;;
34828;SDS011;21042;47.620;12.188;2022-12-18T01:14:42;27.85;;;9.80;;
34828;SDS011;21042;47.620;12.188;2022-12-18T01:17:08;21.70;;;7.65;;
34828;SDS011;21042;47.620;12.188;2022-12-18T01:19:35;24.98;;;8.85;;
34828;SDS011;21042;47.620;12.188;2022-12-18T01:24:29;25.67;;;9.38;;
34828;SDS011;21042;47.620;12.188;2022-12-18T01:26:56;26.73;;;9.63;;
34828;SDS011;21042;47.620;12.188;2022-12-18T01:31:49;27.85;;;9.20;;
34828;SDS011;21042;47.620;12.188;2022-12-18T01:34:16;26.58;;;9.45;;
34828;SDS011;21042;47.620;12.188;2022-12-18T01:36:43;25.95;;;9.05;;
34828;SDS011;21042;47.620;12.188;2022-12-18T01:39:11;29.27;;;9.88;;
34828;SDS011;21042;47.620;12.188;2022-12-18T01:41:41;30.70;;;9.32;;
34828;SDS011;21042;47.620;12.188;2022-12-18T01:47:27;28.55;;;10.25;;
34828;SDS011;21042;47.620;12.188;2022-12-18T01:50:46;31.80;;;10.23;;
34828;SDS011;21042;47.620;12.188;2022-12-18T01:53:12;38.22;;;10.95;;
34828;SDS011;21042;47.620;12.188;2022-12-18T01:55:49;24.05;;;9.07;;
34828;SDS011;21042;47.620;12.188;2022-12-18T01:58:19;31.23;;;9.85;;
34828;SDS011;21042;47.620;12.188;2022-12-18T02:00:49;30.60;;;9.85;;
34828;SDS011;21042;47.620;12.188;2022-12-18T02:03:18;29.17;;;10.75;;
34828;SDS011;21042;47.620;12.188;2022-12-18T02:08:46;20.63;;;7.85;;
34828;SDS011;21042;47.620;12.188;2022-12-18T02:14:28;22.13;;;8.38;;
34828;SDS011;21042;47.620;12.188;2022-12-18T02:17:18;22.05;;;7.50;;
34828;SDS011;21042;47.620;12.188;2022-12-18T02:26:06;27.60;;;8.88;;
34828;SDS011;21042;47.620;12.188;2022-12-18T02:28:01;25.17;;;8.55;;
34828;SDS011;21042;47.620;12.188;2022-12-18T02:30:33;31.20;;;8.73;;
34828;SDS011;21042;47.620;12.188;2022-12-18T02:33:04;21.77;;;8.50;;
34828;SDS011;21042;47.620;12.188;2022-12-18T02:35:34;24.33;;;8.32;;
34828;SDS011;21042;47.620;12.188;2022-12-18T02:38:03;22.55;;;8.52;;
34828;SDS011;21042;47.620;12.188;2022-12-18T02:40:35;23.20;;;8.80;;
34828;SDS011;21042;47.620;12.188;2022-12-18T02:43:07;21.83;;;8.13;;
34828;SDS011;21042;47.620;12.188;2022-12-18T02:45:46;27.13;;;8.48;;
34828;SDS011;21042;47.620;12.188;2022-12-18T02:48:18;28.55;;;10.50;;
34828;SDS011;21042;47.620;12.188;2022-12-18T02:51:14;28.00;;;8.95;;
34828;SDS011;21042;47.620;12.188;2022-12-18T02:54:01;22.05;;;7.72;;
34828;SDS011;21042;47.620;12.188;2022-12-18T02:56:50;26.83;;;9.68;;
34828;SDS011;21042;47.620;12.188;2022-12-18T02:59:30;27.20;;;9.30;;
34828;SDS011;21042;47.620;12.188;2022-12-18T03:02:24;30.48;;;9.85;;
34828;SDS011;21042;47.620;12.188;2022-12-18T03:05:05;30.80;;;9.15;;
34828;SDS011;21042;47.620;12.188;2022-12-18T03:07:45;28.77;;;9.73;;
34828;SDS011;21042;47.620;12.188;2022-12-18T03:10:19;29.42;;;9.43;;
34828;SDS011;21042;47.620;12.188;2022-12-18T03:12:52;27.55;;;9.23;;
34828;SDS011;21042;47.620;12.188;2022-12-18T03:15:44;26.23;;;8.48;;
34828;SDS011;21042;47.620;12.188;2022-12-18T03:20:47;31.70;;;7.93;;
34828;SDS011;21042;47.620;12.188;2022-12-18T03:23:21;27.52;;;9.32;;
34828;SDS011;21042;47.620;12.188;2022-12-18T03:25:52;22.90;;;9.10;;
34828;SDS011;21042;47.620;12.188;2022-12-18T03:28:36;30.10;;;9.75;;
34828;SDS011;21042;47.620;12.188;2022-12-18T03:31:09;22.80;;;7.80;;
34828;SDS011;21042;47.620;12.188;2022-12-18T03:33:40;24.48;;;8.00;;
34828;SDS011;21042;47.620;12.188;2022-12-18T03:36:20;27.45;;;8.65;;
34828;SDS011;21042;47.620;12.188;2022-12-18T03:38:47;26.33;;;9.25;;
34828;SDS011;21042;47.620;12.188;2022-12-18T03:44:18;26.02;;;10.88;;
34828;SDS011;21042;47.620;12.188;2022-12-18T03:47:12;26.67;;;10.88;;
34828;SDS011;21042;47.620;12.188;2022-12-18T03:49:58;25.50;;;9.98;;
34828;SDS011;21042;47.620;12.188;2022-12-18T03:55:15;23.42;;;9.38;;
34828;SDS011;21042;47.620;12.188;2022-12-18T03:57:47;27.55;;;9.13;;
34828;SDS011;21042;47.620;12.188;2022-12-18T04:00:16;29.00;;;9.50;;
34828;SDS011;21042;47.620;12.188;2022-12-18T04:03:02;25.70;;;8.93;;
34828;SDS011;21042;47.620;12.188;2022-12-18T04:05:37;22.38;;;8.48;;
34828;SDS011;21042;47.620;12.188;2022-12-18T04:08:06;21.25;;;8.07;;
34828;SDS011;21042;47.620;12.188;2022-12-18T04:10:36;21.20;;;8.07;;
34828;SDS011;21042;47.620;12.188;2022-12-18T04:13:03;28.25;;;8.63;;
34828;SDS011;21042;47.620;12.188;2022-12-18T04:15:31;25.88;;;8.90;;
34828;SDS011;21042;47.620;12.188;2022-12-18T04:18:01;19.33;;;7.78;;
34828;SDS011;21042;47.620;12.188;2022-12-18T04:20:36;27.58;;;8.75;;
34828;SDS011;21042;47.620;12.188;2022-12-18T04:23:02;27.15;;;9.63;;
34828;SDS011;21042;47.620;12.188;2022-12-18T04:25:29;20.98;;;8.05;;
34828;SDS011;21042;47.620;12.188;2022-12-18T04:28:04;25.52;;;8.60;;
34828;SDS011;21042;47.620;12.188;2022-12-18T04:30:32;26.88;;;8.88;;
34828;SDS011;21042;47.620;12.188;2022-12-18T04:35:29;29.10;;;9.23;;
34828;SDS011;21042;47.620;12.188;2022-12-18T04:37:56;25.90;;;8.20;;
34828;SDS011;21042;47.620;12.188;2022-12-18T04:40:23;23.88;;;8.30;;
34828;SDS011;21042;47.620;12.188;2022-12-18T04:42:51;27.77;;;9.95;;
34828;SDS011;21042;47.620;12.188;2022-12-18T04:45:17;23.77;;;8.52;;
34828;SDS011;21042;47.620;12.188;2022-12-18T04:47:44;20.98;;;8.65;;
34828;SDS011;21042;47.620;12.188;2022-12-18T04:50:11;24.88;;;7.32;;
34828;SDS011;21042;47.620;12.188;2022-12-18T04:52:38;19.30;;;7.30;;
34828;SDS011;21042;47.620;12.188;2022-12-18T04:55:04;19.70;;;7.28;;
34828;SDS011;21042;47.620;12.188;2022-12-18T04:59:58;21.98;;;7.63;;
34828;SDS011;21042;47.620;12.188;2022-12-18T05:02:25;23.15;;;7.07;;
34828;SDS011;21042;47.620;12.188;2022-12-18T05:04:52;22.05;;;8.02;;
34828;SDS011;21042;47.620;12.188;2022-12-18T05:07:18;21.65;;;8.52;;
34828;SDS011;21042;47.620;12.188;2022-12-18T05:09:45;21.67;;;8.38;;
34828;SDS011;21042;47.620;12.188;2022-12-18T05:12:12;17.40;;;6.53;;
34828;SDS011;21042;47.620;12.188;2022-12-18T05:14:39;21.80;;;7.53;;
34828;SDS011;21042;47.620;12.188;2022-12-18T05:17:06;21.73;;;7.55;;
34828;SDS011;21042;47.620;12.188;2022-12-18T05:19:32;22.58;;;7.65;;
34828;SDS011;21042;47.620;12.188;2022-12-18T05:21:59;19.48;;;6.63;;
34828;SDS011;21042;47.620;12.188;2022-12-18T05:24:26;17.48;;;6.65;;
34828;SDS011;21042;47.620;12.188;2022-12-18T05:26:52;23.40;;;7.75;;
34828;SDS011;21042;47.620;12.188;2022-12-18T05:29:19;22.02;;;7.70;;
34828;SDS011;21042;47.620;12.188;2022-12-18T05:31:46;23.65;;;8.68;;
34828;SDS011;21042;47.620;12.188;2022-12-18T05:34:13;16.65;;;6.57;;
34828;SDS011;21042;47.620;12.188;2022-12-18T05:36:39;15.10;;;6.15;;
34828;SDS011;21042;47.620;12.188;2022-12-18T05:39:06;20.38;;;6.32;;
34828;SDS011;21042;47.620;12.188;2022-12-18T05:44:00;19.23;;;5.78;;
34828;SDS011;21042;47.620;12.188;2022-12-18T05:46:27;18.92;;;6.88;;
34828;SDS011;21042;47.620;12.188;2022-12-18T05:48:54;17.63;;;7.07;;
34828;SDS011;21042;47.620;12.188;2022-12-18T05:51:21;20.15;;;8.38;;
34828;SDS011;21042;47.620;12.188;2022-12-18T05:53:48;17.48;;;6.30;;
34828;SDS011;21042;47.620;12.188;2022-12-18T05:56:19;21.45;;;7.22;;
34828;SDS011;21042;47.620;12.188;2022-12-18T05:58:47;16.38;;;7.25;;
34828;SDS011;21042;47.620;12.188;2022-12-18T06:01:20;18.95;;;6.97;;
34828;SDS011;21042;47.620;12.188;2022-12-18T06:03:50;22.13;;;7.07;;
34828;SDS011;21042;47.620;12.188;2022-12-18T06:06:18;23.83;;;8.57;;
34828;SDS011;21042;47.620;12.188;2022-12-18T06:08:48;19.33;;;5.95;;
34828;SDS011;21042;47.620;12.188;2022-12-18T06:11:16;21.20;;;6.93;;
34828;SDS011;21042;47.620;12.188;2022-12-18T06:13:44;23.73;;;7.15;;
34828;SDS011;21042;47.620;12.188;2022-12-18T06:16:12;17.65;;;6.28;;
34828;SDS011;21042;47.620;12.188;2022-12-18T06:23:48;22.52;;;7.32;;
34828;SDS011;21042;47.620;12.188;2022-12-18T06:26:14;28.50;;;9.18;;
34828;SDS011;21042;47.620;12.188;2022-12-18T06:28:42;24.05;;;7.68;;
34828;SDS011;21042;47.620;12.188;2022-12-18T06:31:09;22.30;;;7.07;;
34828;SDS011;21042;47.620;12.188;2022-12-18T06:33:36;21.35;;;7.45;;
34828;SDS011;21042;47.620;12.188;2022-12-18T06:36:08;23.77;;;8.52;;
34828;SDS011;21042;47.620;12.188;2022-12-18T06:38:38;23.25;;;7.85;;
34828;SDS011;21042;47.620;12.188;2022-12-18T06:41:08;18.75;;;7.13;;
34828;SDS011;21042;47.620;12.188;2022-12-18T06:43:35;22.42;;;10.68;;
34828;SDS011;21042;47.620;12.188;2022-12-18T06:46:03;19.67;;;7.70;;
34828;SDS011;21042;47.620;12.188;2022-12-18T06:48:31;24.88;;;7.53;;
34828;SDS011;21042;47.620;12.188;2022-12-18T06:53:25;18.00;;;6.57;;
34828;SDS011;21042;47.620;12.188;2022-12-18T06:55:52;21.67;;;9.60;;
34828;SDS011;21042;47.620;12.188;2022-12-18T06:58:31;29.88;;;10.57;;
34828;SDS011;21042;47.620;12.188;2022-12-18T07:03:26;16.77;;;6.35;;
34828;SDS011;21042;47.620;12.188;2022-12-18T07:05:53;26.73;;;8.68;;
34828;SDS011;21042;47.620;12.188;2022-12-18T07:08:19;15.52;;;6.70;;
34828;SDS011;21042;47.620;12.188;2022-12-18T07:10:46;18.50;;;7.10;;
34828;SDS011;21042;47.620;12.188;2022-12-18T07:13:21;18.60;;;7.30;;
34828;SDS011;21042;47.620;12.188;2022-12-18T07:15:48;21.60;;;8.57;;
34828;SDS011;21042;47.620;12.188;2022-12-18T07:18:15;25.63;;;8.80;;
34828;SDS011;21042;47.620;12.188;2022-12-18T07:20:41;24.90;;;8.35;;
34828;SDS011;21042;47.620;12.188;2022-12-18T07:23:08;22.00;;;8.55;;
34828;SDS011;21042;47.620;12.188;2022-12-18T07:25:35;22.40;;;7.57;;
34828;SDS011;21042;47.620;12.188;2022-12-18T07:28:03;18.55;;;7.18;;
34828;SDS011;21042;47.620;12.188;2022-12-18T07:30:30;74.72;;;23.27;;
34828;SDS011;21042;47.620;12.188;2022-12-18T07:35:24;42.55;;;15.13;;
34828;SDS011;21042;47.620;12.188;2022-12-18T07:37:50;24.55;;;10.88;;
34828;SDS011;21042;47.620;12.188;2022-12-18T07:40:17;29.85;;;12.95;;
34828;SDS011;21042;47.620;12.188;2022-12-18T07:42:44;37.45;;;14.35;;
34828;SDS011;21042;47.620;12.188;2022-12-18T07:45:10;33.75;;;12.73;;
34828;SDS011;21042;47.620;12.188;2022-12-18T07:47:37;24.88;;;8.35;;
34828;SDS011;21042;47.620;12.188;2022-12-18T07:50:04;49.03;;;17.88;;
34828;SDS011;21042;47.620;12.188;2022-12-18T07:52:31;38.55;;;15.80;;
34828;SDS011;21042;47.620;12.188;2022-12-18T07:54:59;36.85;;;16.02;;
34828;SDS011;21042;47.620;12.188;2022-12-18T07:57:25;36.80;;;13.88;;
34828;SDS011;21042;47.620;12.188;2022-12-18T08:00:12;28.70;;;11.57;;
34828;SDS011;21042;47.620;12.188;2022-12-18T08:02:40;30.85;;;11.82;;
34828;SDS011;21042;47.620;12.188;2022-12-18T08:05:07;31.75;;;11.60;;
34828;SDS011;21042;47.620;12.188;2022-12-18T08:10:01;28.70;;;12.25;;
34828;SDS011;21042;47.620;12.188;2022-12-18T08:12:29;30.80;;;11.13;;
34828;SDS011;21042;47.620;12.188;2022-12-18T08:14:56;30.67;;;10.25;;
34828;SDS011;21042;47.620;12.188;2022-12-18T08:17:22;27.67;;;10.45;;
34828;SDS011;21042;47.620;12.188;2022-12-18T08:19:49;24.25;;;8.90;;
34828;SDS011;21042;47.620;12.188;2022-12-18T08:22:16;27.33;;;10.10;;
34828;SDS011;21042;47.620;12.188;2022-12-18T08:24:42;20.00;;;9.00;;
34828;SDS011;21042;47.620;12.188;2022-12-18T08:27:09;27.38;;;9.35;;
34828;SDS011;21042;47.620;12.188;2022-12-18T08:29:55;35.92;;;13.95;;
34828;SDS011;21042;47.620;12.188;2022-12-18T08:32:22;39.28;;;15.43;;
34828;SDS011;21042;47.620;12.188;2022-12-18T08:34:49;30.25;;;11.15;;
34828;SDS011;21042;47.620;12.188;2022-12-18T08:37:16;39.42;;;14.82;;
34828;SDS011;21042;47.620;12.188;2022-12-18T08:39:43;31.08;;;10.07;;
34828;SDS011;21042;47.620;12.188;2022-12-18T08:42:10;28.33;;;9.82;;
34828;SDS011;21042;47.620;12.188;2022-12-18T08:44:55;21.73;;;8.77;;
34828;SDS011;21042;47.620;12.188;2022-12-18T08:47:22;28.02;;;11.05;;
34828;SDS011;21042;47.620;12.188;2022-12-18T08:49:48;26.65;;;11.02;;
34828;SDS011;21042;47.620;12.188;2022-12-18T08:52:15;25.90;;;10.15;;
34828;SDS011;21042;47.620;12.188;2022-12-18T08:54:42;26.40;;;9.63;;
34828;SDS011;21042;47.620;12.188;2022-12-18T08:57:09;26.38;;;9.57;;
34828;SDS011;21042;47.620;12.188;2022-12-18T08:59:35;28.95;;;10.90;;
34828;SDS011;21042;47.620;12.188;2022-12-18T09:02:02;27.33;;;10.27;;
34828;SDS011;21042;47.620;12.188;2022-12-18T09:04:29;20.55;;;9.88;;
34828;SDS011;21042;47.620;12.188;2022-12-18T09:06:56;23.17;;;9.45;;
34828;SDS011;21042;47.620;12.188;2022-12-18T09:09:23;21.52;;;8.55;;
34828;SDS011;21042;47.620;12.188;2022-12-18T09:11:49;20.70;;;8.07;;
34828;SDS011;21042;47.620;12.188;2022-12-18T09:14:16;19.48;;;8.23;;
34828;SDS011;21042;47.620;12.188;2022-12-18T09:16:43;18.17;;;7.88;;
34828;SDS011;21042;47.620;12.188;2022-12-18T09:19:09;25.40;;;10.27;;
34828;SDS011;21042;47.620;12.188;2022-12-18T09:21:36;24.17;;;9.55;;
34828;SDS011;21042;47.620;12.188;2022-12-18T09:24:11;23.02;;;8.82;;
34828;SDS011;21042;47.620;12.188;2022-12-18T09:26:40;24.95;;;9.30;;
34828;SDS011;21042;47.620;12.188;2022-12-18T09:29:08;22.70;;;9.68;;
34828;SDS011;21042;47.620;12.188;2022-12-18T09:31:35;29.77;;;12.05;;
34828;SDS011;21042;47.620;12.188;2022-12-18T09:34:02;22.92;;;9.98;;
34828;SDS011;21042;47.620;12.188;2022-12-18T09:36:30;21.38;;;8.90;;
34828;SDS011;21042;47.620;12.188;2022-12-18T09:38:57;33.00;;;10.95;;
34828;SDS011;21042;47.620;12.188;2022-12-18T09:44:02;19.35;;;8.73;;
34828;SDS011;21042;47.620;12.188;2022-12-18T09:46:42;16.92;;;7.88;;
34828;SDS011;21042;47.620;12.188;2022-12-18T09:49:14;21.45;;;7.97;;
34828;SDS011;21042;47.620;12.188;2022-12-18T09:51:45;18.08;;;8.60;;
34828;SDS011;21042;47.620;12.188;2022-12-18T09:54:20;19.10;;;8.68;;
34828;SDS011;21042;47.620;12.188;2022-12-18T09:56:52;21.80;;;7.70;;
34828;SDS011;21042;47.620;12.188;2022-12-18T09:59:24;16.45;;;7.63;;
34828;SDS011;21042;47.620;12.188;2022-12-18T10:01:58;21.48;;;8.65;;
34828;SDS011;21042;47.620;12.188;2022-12-18T10:04:25;18.75;;;7.93;;
34828;SDS011;21042;47.620;12.188;2022-12-18T10:07:00;18.35;;;7.80;;
34828;SDS011;21042;47.620;12.188;2022-12-18T10:09:38;12.83;;;5.43;;
34828;SDS011;21042;47.620;12.188;2022-12-18T10:14:48;20.27;;;8.65;;
34828;SDS011;21042;47.620;12.188;2022-12-18T10:17:36;25.20;;;8.20;;
34828;SDS011;21042;47.620;12.188;2022-12-18T10:20:54;19.92;;;8.15;;
34828;SDS011;21042;47.620;12.188;2022-12-18T10:23:38;21.83;;;8.35;;
34828;SDS011;21042;47.620;12.188;2022-12-18T10:26:19;17.73;;;7.70;;
34828;SDS011;21042;47.620;12.188;2022-12-18T10:28:47;13.88;;;6.43;;
34828;SDS011;21042;47.620;12.188;2022-12-18T10:31:20;16.83;;;7.95;;
34828;SDS011;21042;47.620;12.188;2022-12-18T10:33:50;17.75;;;7.13;;
34828;SDS011;21042;47.620;12.188;2022-12-18T10:36:20;15.32;;;7.15;;
34828;SDS011;21042;47.620;12.188;2022-12-18T10:38:48;17.77;;;7.65;;
34828;SDS011;21042;47.620;12.188;2022-12-18T10:43:47;21.23;;;7.65;;
34828;SDS011;21042;47.620;12.188;2022-12-18T10:46:15;18.30;;;7.18;;
34828;SDS011;21042;47.620;12.188;2022-12-18T10:51:21;14.63;;;6.68;;
34828;SDS011;21042;47.620;12.188;2022-12-18T10:54:06;17.17;;;6.97;;
34828;SDS011;21042;47.620;12.188;2022-12-18T10:56:43;20.05;;;8.18;;
34828;SDS011;21042;47.620;12.188;2022-12-18T10:59:12;21.65;;;8.07;;
34828;SDS011;21042;47.620;12.188;2022-12-18T11:01:56;17.00;;;7.00;;
34828;SDS011;21042;47.620;12.188;2022-12-18T11:04:26;17.65;;;7.53;;
34828;SDS011;21042;47.620;12.188;2022-12-18T11:07:01;15.50;;;7.05;;
34828;SDS011;21042;47.620;12.188;2022-12-18T11:09:33;16.17;;;7.15;;
34828;SDS011;21042;47.620;12.188;2022-12-18T11:12:02;15.38;;;6.35;;
34828;SDS011;21042;47.620;12.188;2022-12-18T11:14:33;19.92;;;7.15;;
34828;SDS011;21042;47.620;12.188;2022-12-18T11:17:19;17.60;;;6.93;;
34828;SDS011;21042;47.620;12.188;2022-12-18T11:19:58;26.73;;;7.63;;
34828;SDS011;21042;47.620;12.188;2022-12-18T11:22:28;16.95;;;6.45;;
34828;SDS011;21042;47.620;12.188;2022-12-18T11:28:01;13.48;;;5.72;;
34828;SDS011;21042;47.620;12.188;2022-12-18T11:31:02;12.10;;;5.50;;
34828;SDS011;21042;47.620;12.188;2022-12-18T11:33:34;14.13;;;5.60;;
34828;SDS011;21042;47.620;12.188;2022-12-18T11:36:04;11.02;;;5.10;;
34828;SDS011;21042;47.620;12.188;2022-12-18T11:38:36;11.73;;;5.45;;
34828;SDS011;21042;47.620;12.188;2022-12-18T11:43:46;16.30;;;5.63;;
34828;SDS011;21042;47.620;12.188;2022-12-18T11:46:30;15.60;;;5.82;;
34828;SDS011;21042;47.620;12.188;2022-12-18T11:54:25;13.05;;;5.30;;
34828;SDS011;21042;47.620;12.188;2022-12-18T11:59:40;16.42;;;6.55;;
34828;SDS011;21042;47.620;12.188;2022-12-18T12:02:29;13.30;;;5.65;;
34828;SDS011;21042;47.620;12.188;2022-12-18T12:07:47;14.57;;;6.05;;
34828;SDS011;21042;47.620;12.188;2022-12-18T12:13:16;12.60;;;5.50;;
34828;SDS011;21042;47.620;12.188;2022-12-18T12:23:57;11.68;;;4.70;;
34828;SDS011;21042;47.620;12.188;2022-12-18T12:26:41;10.65;;;4.65;;
34828;SDS011;21042;47.620;12.188;2022-12-18T12:29:22;9.88;;;4.35;;
34828;SDS011;21042;47.620;12.188;2022-12-18T12:35:23;8.85;;;4.53;;
34828;SDS011;21042;47.620;12.188;2022-12-18T12:38:08;11.77;;;4.80;;
34828;SDS011;21042;47.620;12.188;2022-12-18T12:40:47;11.93;;;4.90;;
34828;SDS011;21042;47.620;12.188;2022-12-18T12:43:38;9.23;;;4.28;;
34828;SDS011;21042;47.620;12.188;2022-12-18T12:46:17;13.25;;;5.20;;
34828;SDS011;21042;47.620;12.188;2022-12-18T12:51:30;22.10;;;5.32;;
34828;SDS011;21042;47.620;12.188;2022-12-18T12:54:01;8.88;;;4.07;;
34828;SDS011;21042;47.620;12.188;2022-12-18T12:57:16;14.07;;;5.05;;
34828;SDS011;21042;47.620;12.188;2022-12-18T12:59:42;11.40;;;5.60;;
34828;SDS011;21042;47.620;12.188;2022-12-18T13:02:22;10.32;;;5.07;;
34828;SDS011;21042;47.620;12.188;2022-12-18T13:05:14;10.98;;;4.50;;
34828;SDS011;21042;47.620;12.188;2022-12-18T13:08:03;12.85;;;4.47;;
34828;SDS011;21042;47.620;12.188;2022-12-18T13:10:37;17.20;;;4.82;;
34828;SDS011;21042;47.620;12.188;2022-12-18T13:13:10;13.88;;;6.70;;
34828;SDS011;21042;47.620;12.188;2022-12-18T13:16:05;16.98;;;8.45;;
34828;SDS011;21042;47.620;12.188;2022-12-18T13:18:34;15.85;;;6.30;;
34828;SDS011;21042;47.620;12.188;2022-12-18T13:21:02;12.00;;;6.63;;
34828;SDS011;21042;47.620;12.188;2022-12-18T13:23:39;11.90;;;5.53;;
34828;SDS011;21042;47.620;12.188;2022-12-18T13:34:43;14.85;;;6.00;;
34828;SDS011;21042;47.620;12.188;2022-12-18T13:36:54;17.02;;;6.97;;
34828;SDS011;21042;47.620;12.188;2022-12-18T13:39:30;17.70;;;7.60;;
34828;SDS011;21042;47.620;12.188;2022-12-18T13:44:39;23.05;;;9.60;;
34828;SDS011;21042;47.620;12.188;2022-12-18T13:47:26;29.33;;;11.75;;
34828;SDS011;21042;47.620;12.188;2022-12-18T13:49:59;31.42;;;14.25;;
34828;SDS011;21042;47.620;12.188;2022-12-18T13:52:36;25.92;;;11.32;;
34828;SDS011;21042;47.620;12.188;2022-12-18T13:55:07;20.08;;;8.90;;
34828;SDS011;21042;47.620;12.188;2022-12-18T13:57:41;29.70;;;12.75;;
34828;SDS011;21042;47.620;12.188;2022-12-18T14:00:27;27.02;;;11.75;;
34828;SDS011;21042;47.620;12.188;2022-12-18T14:02:55;22.00;;;9.55;;
34828;SDS011;21042;47.620;12.188;2022-12-18T14:05:24;18.30;;;8.38;;
34828;SDS011;21042;47.620;12.188;2022-12-18T14:07:53;15.93;;;7.55;;
34828;SDS011;21042;47.620;12.188;2022-12-18T14:10:21;15.32;;;6.72;;
34828;SDS011;21042;47.620;12.188;2022-12-18T14:13:10;13.93;;;5.75;;
34828;SDS011;21042;47.620;12.188;2022-12-18T14:15:43;22.20;;;10.48;;
34828;SDS011;21042;47.620;12.188;2022-12-18T14:20:52;14.73;;;8.07;;
34828;SDS011;21042;47.620;12.188;2022-12-18T14:26:01;68.43;;;24.48;;
34828;SDS011;21042;47.620;12.188;2022-12-18T14:28:31;74.38;;;27.05;;
34828;SDS011;21042;47.620;12.188;2022-12-18T14:30:58;56.67;;;22.40;;
34828;SDS011;21042;47.620;12.188;2022-12-18T14:33:26;50.40;;;19.85;;
34828;SDS011;21042;47.620;12.188;2022-12-18T14:35:57;34.70;;;16.67;;
34828;SDS011;21042;47.620;12.188;2022-12-18T14:41:12;31.58;;;15.80;;
34828;SDS011;21042;47.620;12.188;2022-12-18T14:43:41;39.40;;;17.75;;
34828;SDS011;21042;47.620;12.188;2022-12-18T14:49:33;60.75;;;26.23;;
34828;SDS011;21042;47.620;12.188;2022-12-18T14:52:40;47.17;;;23.90;;
34828;SDS011;21042;47.620;12.188;2022-12-18T14:54:48;35.17;;;16.00;;
34828;SDS011;21042;47.620;12.188;2022-12-18T14:57:22;23.10;;;9.43;;
34828;SDS011;21042;47.620;12.188;2022-12-18T14:59:51;24.67;;;10.38;;
34828;SDS011;21042;47.620;12.188;2022-12-18T15:02:27;21.52;;;8.73;;
34828;SDS011;21042;47.620;12.188;2022-12-18T15:07:42;40.40;;;16.63;;
34828;SDS011;21042;47.620;12.188;2022-12-18T15:12:41;37.60;;;14.88;;
34828;SDS011;21042;47.620;12.188;2022-12-18T15:18:00;26.17;;;10.20;;
34828;SDS011;21042;47.620;12.188;2022-12-18T15:20:32;29.95;;;13.63;;
34828;SDS011;21042;47.620;12.188;2022-12-18T15:26:00;36.47;;;15.75;;
34828;SDS011;21042;47.620;12.188;2022-12-18T15:28:39;29.73;;;10.45;;
34828;SDS011;21042;47.620;12.188;2022-12-18T15:33:39;22.42;;;10.68;;
34828;SDS011;21042;47.620;12.188;2022-12-18T15:36:29;31.40;;;12.73;;
34828;SDS011;21042;47.620;12.188;2022-12-18T15:38:56;31.58;;;12.15;;
34828;SDS011;21042;47.620;12.188;2022-12-18T15:41:31;32.40;;;14.60;;
34828;SDS011;21042;47.620;12.188;2022-12-18T15:44:01;22.40;;;10.40;;
34828;SDS011;21042;47.620;12.188;2022-12-18T15:46:29;24.58;;;10.25;;
34828;SDS011;21042;47.620;12.188;2022-12-18T15:48:57;25.23;;;9.82;;
34828;SDS011;21042;47.620;12.188;2022-12-18T15:51:29;26.48;;;12.77;;
34828;SDS011;21042;47.620;12.188;2022-12-18T15:54:02;29.77;;;13.05;;
34828;SDS011;21042;47.620;12.188;2022-12-18T15:56:31;25.73;;;11.30;;
34828;SDS011;21042;47.620;12.188;2022-12-18T15:59:17;22.42;;;11.00;;
34828;SDS011;21042;47.620;12.188;2022-12-18T16:01:46;27.20;;;13.15;;
34828;SDS011;21042;47.620;12.188;2022-12-18T16:04:16;44.78;;;18.70;;
34828;SDS011;21042;47.620;12.188;2022-12-18T16:06:46;34.30;;;15.40;;
34828;SDS011;21042;47.620;12.188;2022-12-18T16:09:34;25.30;;;11.18;;
34828;SDS011;21042;47.620;12.188;2022-12-18T16:12:02;28.33;;;13.10;;
34828;SDS011;21042;47.620;12.188;2022-12-18T16:14:29;32.50;;;13.70;;
34828;SDS011;21042;47.620;12.188;2022-12-18T16:16:57;30.60;;;14.32;;
34828;SDS011;21042;47.620;12.188;2022-12-18T16:19:26;25.42;;;9.80;;
34828;SDS011;21042;47.620;12.188;2022-12-18T16:21:54;28.13;;;12.48;;
34828;SDS011;21042;47.620;12.188;2022-12-18T16:24:23;26.23;;;11.63;;
34828;SDS011;21042;47.620;12.188;2022-12-18T16:26:52;37.97;;;13.98;;
34828;SDS011;21042;47.620;12.188;2022-12-18T16:29:20;29.33;;;12.68;;
34828;SDS011;21042;47.620;12.188;2022-12-18T16:31:50;31.98;;;15.13;;
34828;SDS011;21042;47.620;12.188;2022-12-18T16:36:58;25.63;;;12.15;;
34828;SDS011;21042;47.620;12.188;2022-12-18T16:39:32;35.15;;;16.52;;
34828;SDS011;21042;47.620;12.188;2022-12-18T16:42:10;37.15;;;15.10;;
34828;SDS011;21042;47.620;12.188;2022-12-18T16:44:46;35.72;;;13.82;;
34828;SDS011;21042;47.620;12.188;2022-12-18T16:47:14;49.92;;;18.15;;
34828;SDS011;21042;47.620;12.188;2022-12-18T16:49:41;47.92;;;18.95;;
34828;SDS011;21042;47.620;12.188;2022-12-18T16:52:11;39.13;;;16.30;;
34828;SDS011;21042;47.620;12.188;2022-12-18T16:54:38;26.55;;;10.73;;
34828;SDS011;21042;47.620;12.188;2022-12-18T16:57:05;26.00;;;10.75;;
34828;SDS011;21042;47.620;12.188;2022-12-18T16:59:33;34.95;;;15.55;;
34828;SDS011;21042;47.620;12.188;2022-12-18T17:02:00;49.08;;;19.15;;